Time;durP1;ratioP1;P1;durP2;ratioP2;P2;SDS_P1;SDS_P2;PMS_P1;PMS_P2;Temp;Humidity;BMP_temperature;BMP_pressure;BME280_temperature;BME280_humidity;BME280_pressure;Samples;Min_cycle;Max_cycle;Signal;HPM_P1;HPM_P2
2021/06/19 00:00:18;;;;;;;17.57;15.73;;;;;;;25.12;63.42;99961.00;5068952;28;20464;-74
2021/06/19 00:02:45;;;;;;;18.27;16.30;;;;;;;25.03;64.00;99959.75;5082824;28;20490;-74
2021/06/19 00:05:13;;;;;;;19.07;17.07;;;;;;;24.97;64.54;99958.81;5081620;28;20444;-73
2021/06/19 00:07:41;;;;;;;18.40;16.70;;;;;;;24.98;64.60;99969.53;5082193;28;20887;-73
2021/06/19 00:10:09;;;;;;;18.30;16.60;;;;;;;24.94;64.60;99956.56;5081431;28;20484;-73
2021/06/19 00:12:37;;;;;;;18.00;16.00;;;;;;;24.93;65.00;99960.34;5082664;28;20441;-73
2021/06/19 00:15:05;;;;;;;18.67;16.97;;;;;;;24.99;64.80;99973.09;5081731;28;20595;-73
2021/06/19 00:17:33;;;;;;;16.90;15.30;;;;;;;25.18;64.44;99980.03;5081419;28;20524;-73
2021/06/19 00:20:00;;;;;;;17.57;15.70;;;;;;;25.28;63.89;99975.88;5081418;28;20483;-75
2021/06/19 00:22:26;;;;;;;19.40;17.40;;;;;;;25.31;63.75;99983.56;5081664;28;20955;-75
2021/06/19 00:24:53;;;;;;;20.83;18.70;;;;;;;25.28;63.99;99982.16;5082148;28;20490;-75
2021/06/19 00:27:20;;;;;;;20.20;17.70;;;;;;;25.14;64.09;99989.81;5080623;28;20476;-75
2021/06/19 00:29:46;;;;;;;19.83;18.00;;;;;;;25.08;64.71;99981.72;5081720;28;20440;-75
2021/06/19 00:32:13;;;;;;;22.10;19.30;;;;;;;24.86;65.41;99979.66;5081150;28;20468;-75
2021/06/19 00:34:41;;;;;;;19.50;17.50;;;;;;;24.74;65.57;99976.13;5081657;28;21074;-75
2021/06/19 00:37:08;;;;;;;18.70;16.93;;;;;;;24.73;65.55;99986.22;5080018;28;20475;-74
2021/06/19 00:39:34;;;;;;;18.70;17.00;;;;;;;24.86;65.29;99979.66;5081906;28;20456;-74
2021/06/19 00:42:01;;;;;;;18.30;16.60;;;;;;;24.97;64.46;99977.97;5081086;28;20464;-74
2021/06/19 00:44:28;;;;;;;17.03;15.43;;;;;;;24.90;64.82;99988.22;5081786;28;20444;-75
2021/06/19 00:46:55;;;;;;;18.77;17.07;;;;;;;24.84;64.75;99994.63;5081059;28;20492;-74
2021/06/19 00:49:23;;;;;;;17.13;15.50;;;;;;;24.57;65.17;99989.69;5082052;28;20519;-75
2021/06/19 00:51:51;;;;;;;16.83;15.17;;;;;;;24.45;65.69;99986.94;5081063;28;20484;-74
2021/06/19 00:54:19;;;;;;;17.53;15.80;;;;;;;24.43;65.92;99994.56;5081544;28;20461;-74
2021/06/19 00:56:46;;;;;;;17.33;15.73;;;;;;;24.38;66.41;99998.00;5080900;28;20567;-74
2021/06/19 00:59:15;;;;;;;18.73;17.07;;;;;;;24.37;66.60;100000.94;5081935;28;20499;-74
2021/06/19 01:01:41;;;;;;;18.10;16.40;;;;;;;24.25;66.31;99988.13;5080613;28;20500;-74
2021/06/19 01:04:08;;;;;;;18.67;16.73;;;;;;;24.13;66.60;100006.44;5080610;28;20449;-75
2021/06/19 01:06:36;;;;;;;17.13;15.63;;;;;;;24.15;66.73;100011.66;5080905;28;20920;-74
2021/06/19 01:09:06;;;;;;;17.27;15.60;;;;;;;24.35;66.19;100014.84;5081901;28;20433;-74
2021/06/19 01:11:34;;;;;;;19.70;17.70;;;;;;;24.25;65.73;100014.59;5080973;28;20499;-75
2021/06/19 01:14:01;;;;;;;20.90;17.47;;;;;;;24.20;65.88;100014.47;5080698;28;20510;-75
2021/06/19 01:16:28;;;;;;;18.73;17.03;;;;;;;24.25;65.50;100015.47;5080151;28;20472;-74
2021/06/19 01:18:54;;;;;;;16.70;15.20;;;;;;;24.36;65.11;100027.44;5080904;28;20468;-75
2021/06/19 01:21:23;;;;;;;17.23;15.63;;;;;;;24.50;64.89;100027.22;5080174;28;20498;-75
2021/06/19 01:23:51;;;;;;;17.80;16.00;;;;;;;24.63;64.70;100037.94;5080137;28;20456;-74
2021/06/19 01:26:20;;;;;;;17.50;15.87;;;;;;;24.70;64.16;100038.63;5080442;28;20556;-75
2021/06/19 01:28:48;;;;;;;17.33;15.83;;;;;;;24.66;64.09;100036.63;5081514;28;20463;-75
2021/06/19 01:31:15;;;;;;;18.23;16.43;;;;;;;24.66;63.88;100034.72;5079996;28;20460;-75
2021/06/19 01:33:42;;;;;;;19.50;16.67;;;;;;;24.47;64.21;100030.44;5080500;28;20777;-75
2021/06/19 01:36:11;;;;;;;18.00;15.40;;;;;;;24.33;64.94;100030.66;5079608;28;20479;-74
2021/06/19 01:38:39;;;;;;;17.67;16.03;;;;;;;24.36;64.80;100032.91;5080459;28;20472;-74
2021/06/19 01:41:06;;;;;;;19.37;16.40;;;;;;;24.33;64.81;100029.84;5079816;28;20479;-74
2021/06/19 01:43:34;;;;;;;18.83;17.13;;;;;;;24.35;64.89;100039.44;5080759;28;20463;-74
2021/06/19 01:46:01;;;;;;;16.60;15.10;;;;;;;24.39;64.48;100034.34;5080459;28;20488;-74
2021/06/19 01:48:27;;;;;;;17.33;15.30;;;;;;;24.39;64.60;100037.91;5080548;28;20491;-75
2021/06/19 01:50:54;;;;;;;17.60;16.00;;;;;;;24.43;64.34;100038.28;5080310;28;20496;-75
2021/06/19 01:53:21;;;;;;;16.67;15.00;;;;;;;24.45;63.99;100047.06;5081155;28;20448;-75
2021/06/19 01:55:47;;;;;;;16.40;15.00;;;;;;;24.42;63.91;100048.34;5080158;28;20495;-75
2021/06/19 01:58:14;;;;;;;15.50;14.00;;;;;;;24.50;63.11;100047.19;5080573;28;20540;-75
2021/06/19 02:00:42;;;;;;;14.00;12.53;;;;;;;24.57;62.83;100044.38;5080062;28;20480;-74
2021/06/19 02:03:09;;;;;;;14.50;13.10;;;;;;;24.61;62.23;100043.63;5079487;28;20510;-75
2021/06/19 02:05:36;;;;;;;14.57;13.17;;;;;;;24.60;61.63;100044.72;5079677;28;20468;-74
2021/06/19 02:08:06;;;;;;;13.23;12.03;;;;;;;24.67;60.88;100051.94;5080669;28;20432;-74
2021/06/19 02:10:36;;;;;;;16.03;12.37;;;;;;;24.67;60.80;100057.41;5079405;28;21043;-76
2021/06/19 02:13:04;;;;;;;13.33;12.07;;;;;;;24.61;60.91;100051.81;5081394;28;20480;-76
2021/06/19 02:15:31;;;;;;;13.07;11.07;;;;;;;24.51;59.50;100056.19;5077742;28;20882;-76
2021/06/19 02:17:59;;;;;;;12.10;10.83;;;;;;;24.71;59.26;100059.44;5080754;28;21072;-76
2021/06/19 02:20:27;;;;;;;13.17;11.23;;;;;;;24.82;58.47;100063.22;5079171;28;20468;-76
2021/06/19 02:22:54;;;;;;;11.47;10.27;;;;;;;24.86;58.56;100052.66;5079688;28;20834;-76
2021/06/19 02:25:23;;;;;;;21.13;11.90;;;;;;;24.91;58.80;100048.13;5079574;28;20456;-76
2021/06/19 02:27:51;;;;;;;12.63;10.80;;;;;;;24.84;59.49;100052.06;5080158;28;20433;-76
2021/06/19 02:30:20;;;;;;;14.13;11.60;;;;;;;24.85;59.49;100054.56;5079760;28;20488;-76
2021/06/19 02:32:47;;;;;;;14.10;12.03;;;;;;;24.69;59.64;100061.59;5079840;28;20885;-76
2021/06/19 02:35:15;;;;;;;12.77;11.40;;;;;;;24.74;59.36;100063.63;5079052;28;20536;-76
2021/06/19 02:37:42;;;;;;;11.50;10.40;;;;;;;24.70;59.66;100060.50;5079591;28;20533;-75
2021/06/19 02:40:09;;;;;;;12.80;11.10;;;;;;;24.66;59.67;100073.00;5078872;28;20788;-76
2021/06/19 02:42:36;;;;;;;12.73;11.13;;;;;;;24.52;59.49;100075.09;5079731;28;20442;-75
2021/06/19 02:45:10;;;;;;;16.97;11.90;;;;;;;24.60;59.38;100076.69;5079588;28;20489;-76
2021/06/19 02:47:37;;;;;;;15.43;11.33;;;;;;;24.49;60.26;100074.75;5080082;28;20489;-76
2021/06/19 02:50:04;;;;;;;13.17;11.77;;;;;;;24.48;60.21;100084.84;5079712;28;20480;-76
2021/06/19 02:52:32;;;;;;;18.53;10.30;;;;;;;24.52;60.32;100083.31;5079991;28;21046;-76
2021/06/19 02:54:59;;;;;;;16.23;11.40;;;;;;;24.16;60.77;100085.13;5079766;28;20499;-75
2021/06/19 02:57:26;;;;;;;12.13;10.77;;;;;;;24.05;61.46;100089.50;5079763;28;20549;-75
2021/06/19 02:59:52;;;;;;;12.90;11.60;;;;;;;23.86;62.70;100074.28;5079374;28;20456;-76
2021/06/19 03:02:19;;;;;;;14.77;13.30;;;;;;;23.62;64.64;100079.59;5078359;28;21112;-75
2021/06/19 03:04:45;;;;;;;14.80;12.33;;;;;;;23.63;64.80;100075.81;5079663;28;20479;-76
2021/06/19 03:07:12;;;;;;;17.07;15.27;;;;;;;23.55;66.34;100087.03;5079725;28;20860;-76
2021/06/19 03:09:40;;;;;;;16.83;15.07;;;;;;;23.61;65.86;100079.81;5080607;28;20443;-75
2021/06/19 03:12:08;;;;;;;15.57;13.80;;;;;;;23.37;65.28;100085.19;5078937;28;20500;-75
2021/06/19 03:14:35;;;;;;;20.67;15.07;;;;;;;23.31;65.93;100083.38;5080137;28;20456;-76
2021/06/19 03:17:01;;;;;;;15.30;12.77;;;;;;;23.35;65.47;100090.03;5082439;28;20725;-76
2021/06/19 03:19:28;;;;;;;16.07;14.33;;;;;;;23.47;65.15;100087.34;5083488;28;20890;-76
2021/06/19 03:21:58;;;;;;;15.93;13.57;;;;;;;23.45;64.68;100081.31;5081984;28;21070;-76
2021/06/19 03:24:25;;;;;;;15.40;13.90;;;;;;;23.47;64.85;100071.00;5083661;28;21025;-75
2021/06/19 03:26:53;;;;;;;17.63;14.97;;;;;;;23.50;64.60;100076.84;5082920;28;20484;-75
2021/06/19 03:29:20;;;;;;;15.73;13.27;;;;;;;23.54;64.45;100076.34;5082156;28;20483;-76
2021/06/19 03:31:46;;;;;;;13.80;12.40;;;;;;;23.59;63.95;100071.91;5082179;28;21008;-75
2021/06/19 03:34:13;;;;;;;14.07;12.60;;;;;;;23.50;64.14;100079.56;5083021;28;20957;-75
2021/06/19 03:36:40;;;;;;;13.50;11.97;;;;;;;23.39;64.48;100074.06;5082231;28;20487;-76
2021/06/19 03:39:06;;;;;;;12.70;11.33;;;;;;;23.52;63.96;100075.75;5082877;28;20503;-76
2021/06/19 03:41:33;;;;;;;14.63;11.77;;;;;;;23.52;64.21;100083.94;5081850;28;20559;-76
2021/06/19 03:44:01;;;;;;;13.13;11.13;;;;;;;23.71;63.57;100079.28;5083247;28;20480;-76
2021/06/19 03:46:27;;;;;;;17.57;11.10;;;;;;;23.63;63.52;100083.19;5082157;28;20480;-76
2021/06/19 03:48:54;;;;;;;12.77;10.87;;;;;;;23.72;63.32;100080.97;5083070;28;21008;-76
2021/06/19 03:51:21;;;;;;;12.23;10.97;;;;;;;23.84;63.12;100079.13;5082282;28;20516;-75
2021/06/19 03:53:47;;;;;;;11.93;10.47;;;;;;;24.04;62.17;100078.81;5082879;28;20472;-76
2021/06/19 03:56:14;;;;;;;14.87;10.40;;;;;;;24.53;60.92;100086.84;5082181;28;20484;-75
2021/06/19 03:58:41;;;;;;;12.20;10.43;;;;;;;26.00;56.51;100092.19;5083277;28;20536;-76
2021/06/19 04:01:11;;;;;;;12.40;10.57;;;;;;;27.18;53.20;100089.38;5081442;28;20476;-76
2021/06/19 04:03:37;;;;;;;10.03;8.90;;;;;;;27.80;50.36;100093.69;5078285;28;20464;-75
2021/06/19 04:06:04;;;;;;;13.07;8.13;;;;;;;28.48;48.50;100106.16;5071659;28;20468;-76
2021/06/19 04:08:31;;;;;;;9.63;8.73;;;;;;;29.52;46.03;100097.44;5082711;28;20472;-76
2021/06/19 04:10:58;;;;;;;10.33;9.03;;;;;;;30.23;44.14;100105.06;5082245;28;20464;-76
2021/06/19 04:13:24;;;;;;;9.87;8.67;;;;;;;31.06;42.19;100103.91;5081930;28;20495;-76
2021/06/19 04:15:51;;;;;;;8.60;6.80;;;;;;;31.62;40.21;100111.16;5082080;28;20508;-76
2021/06/19 04:18:19;;;;;;;9.30;8.17;;;;;;;32.24;38.81;100108.84;5082558;28;20512;-77
2021/06/19 04:20:46;;;;;;;7.60;6.13;;;;;;;32.74;37.47;100110.63;5081774;28;21072;-76
2021/06/19 04:23:12;;;;;;;13.80;7.27;;;;;;;33.50;35.95;100108.13;5082088;28;21042;-76
2021/06/19 04:25:39;;;;;;;5.80;5.13;;;;;;;32.98;36.42;100105.13;5080830;28;20845;-77
2021/06/19 04:28:06;;;;;;;8.50;4.93;;;;;;;32.58;37.03;100121.81;5082436;28;20429;-79
2021/06/19 04:30:33;;;;;;;9.70;5.10;;;;;;;32.55;36.90;100116.88;5081043;28;20464;-77
2021/06/19 04:33:00;;;;;;;5.47;4.37;;;;;;;32.87;35.97;100132.09;5082057;28;20485;-77
2021/06/19 04:35:28;;;;;;;10.20;4.73;;;;;;;32.84;35.61;100129.91;5080731;28;20461;-77
2021/06/19 04:37:55;;;;;;;5.33;4.13;;;;;;;32.46;36.31;100130.53;5082266;28;20448;-78
2021/06/19 04:40:30;;;;;;;4.97;4.43;;;;;;;32.39;36.03;100123.66;5080694;28;20480;-77
2021/06/19 04:43:01;;;;;;;6.43;4.50;;;;;;;34.10;33.31;100129.75;5080906;28;20464;-76
2021/06/19 04:45:28;;;;;;;13.30;4.23;;;;;;;34.54;32.21;100141.56;5081558;28;20551;-77
2021/06/19 04:47:55;;;;;;;6.23;4.13;;;;;;;34.64;31.67;100139.44;5082119;28;20484;-76
2021/06/19 04:50:21;;;;;;;10.07;3.47;;;;;;;34.94;31.53;100142.81;5081037;28;20488;-76
2021/06/19 04:52:49;;;;;;;6.23;4.50;;;;;;;34.70;31.86;100142.94;5081191;28;21016;-77
2021/06/19 04:55:18;;;;;;;5.90;4.20;;;;;;;35.10;31.49;100148.06;5081504;28;20474;-77
2021/06/19 04:57:45;;;;;;;5.73;4.53;;;;;;;34.26;32.56;100153.38;5082330;28;20495;-76
2021/06/19 05:00:13;;;;;;;5.80;4.43;;;;;;;34.59;32.00;100158.13;5080602;28;20523;-76
2021/06/19 05:02:40;;;;;;;6.90;4.30;;;;;;;34.50;32.20;100158.81;5081275;28;20459;-76
2021/06/19 05:05:07;;;;;;;9.20;4.20;;;;;;;34.66;31.74;100159.38;5081031;28;20452;-75
2021/06/19 05:07:35;;;;;;;7.60;4.80;;;;;;;35.76;29.70;100169.00;5082040;28;20445;-77
2021/06/19 05:10:05;;;;;;;8.27;4.20;;;;;;;34.25;32.09;100162.00;5080413;28;20858;-75
2021/06/19 05:12:33;;;;;;;7.67;4.43;;;;;;;33.10;34.39;100174.78;5081136;28;20449;-76
2021/06/19 05:15:00;;;;;;;5.33;3.80;;;;;;;33.49;33.58;100173.81;5079606;28;20463;-75
2021/06/19 05:17:27;;;;;;;5.57;3.60;;;;;;;33.03;33.82;100177.06;5080875;28;20559;-77
2021/06/19 05:19:53;;;;;;;5.50;3.63;;;;;;;34.11;32.28;100175.78;5074607;28;20562;-74
2021/06/19 05:22:20;;;;;;;7.20;3.93;;;;;;;33.66;33.22;100184.44;5060915;28;20572;-76
2021/06/19 05:24:47;;;;;;;8.67;4.07;;;;;;;32.56;34.62;100189.66;5077883;28;20785;-76
2021/06/19 05:27:15;;;;;;;7.30;4.50;;;;;;;32.23;35.70;100181.03;5080427;28;20592;-75
2021/06/19 05:29:41;;;;;;;6.37;4.50;;;;;;;30.43;38.81;100189.75;5080287;28;20476;-78
2021/06/19 05:32:09;;;;;;;6.03;3.90;;;;;;;30.75;38.54;100185.91;5079961;28;20476;-76
2021/06/19 05:34:36;;;;;;;4.47;4.03;;;;;;;30.68;38.63;100183.44;5080777;28;20603;-76
2021/06/19 05:37:02;;;;;;;9.30;4.70;;;;;;;30.77;38.42;100175.41;5080741;28;20476;-75
2021/06/19 05:39:29;;;;;;;7.50;3.77;;;;;;;30.77;38.60;100173.47;5079280;28;20524;-76
2021/06/19 05:41:56;;;;;;;6.27;3.90;;;;;;;31.82;36.65;100175.72;5079071;28;20518;-75
2021/06/19 05:44:24;;;;;;;5.07;4.03;;;;;;;31.48;37.19;100177.22;5080386;28;20445;-75
2021/06/19 05:46:50;;;;;;;4.50;3.83;;;;;;;30.65;38.49;100183.16;5080757;28;20472;-76
2021/06/19 05:49:17;;;;;;;8.20;4.07;;;;;;;32.00;36.05;100182.56;5080231;28;20504;-74
2021/06/19 05:51:44;;;;;;;4.40;3.50;;;;;;;33.59;33.34;100183.94;5076037;28;20503;-75
2021/06/19 05:54:11;;;;;;;5.20;3.60;;;;;;;33.50;33.24;100181.00;5079257;28;20441;-75
2021/06/19 05:56:37;;;;;;;6.63;3.97;;;;;;;34.36;31.56;100194.03;5080713;28;20468;-76
2021/06/19 05:59:04;;;;;;;3.90;3.13;;;;;;;34.18;32.69;100192.88;5079925;28;21075;-75
2021/06/19 06:01:32;;;;;;;5.73;3.70;;;;;;;34.25;32.02;100193.38;5079421;28;20508;-74
2021/06/19 06:03:59;;;;;;;4.30;3.50;;;;;;;34.36;32.14;100195.97;5079508;28;20754;-74
2021/06/19 06:06:26;;;;;;;8.63;4.13;;;;;;;31.93;35.91;100187.56;5080220;28;20484;-75
2021/06/19 06:08:53;;;;;;;9.30;4.20;;;;;;;32.52;35.36;100186.66;5080025;28;20459;-75
2021/06/19 06:11:20;;;;;;;8.67;3.73;;;;;;;33.96;32.87;100183.22;5080224;28;21013;-75
2021/06/19 06:13:46;;;;;;;8.60;3.77;;;;;;;33.01;34.39;100184.84;5080047;28;20931;-75
2021/06/19 06:16:13;;;;;;;4.90;3.20;;;;;;;34.56;31.51;100189.28;5079807;28;20467;-75
2021/06/19 06:18:41;;;;;;;4.87;3.23;;;;;;;35.56;30.46;100191.66;5080940;28;20511;-75
2021/06/19 06:21:08;;;;;;;3.60;3.10;;;;;;;34.20;31.54;100200.94;5079565;28;20800;-75
2021/06/19 06:23:35;;;;;;;3.63;2.93;;;;;;;35.06;30.22;100203.44;5080021;28;20483;-75
2021/06/19 06:26:02;;;;;;;4.00;3.10;;;;;;;32.82;33.24;100204.13;5079768;28;20531;-75
2021/06/19 06:28:29;;;;;;;8.13;3.60;;;;;;;33.93;32.09;100205.16;5080252;28;20467;-74
2021/06/19 06:30:56;;;;;;;5.47;3.40;;;;;;;34.47;31.18;100201.06;5071194;28;20468;-75
2021/06/19 06:33:25;;;;;;;3.23;2.50;;;;;;;32.46;34.08;100207.16;5079992;28;20439;-76
2021/06/19 06:35:54;;;;;;;2.73;2.47;;;;;;;31.52;35.82;100208.72;5079676;28;20472;-76
2021/06/19 06:38:21;;;;;;;3.97;2.60;;;;;;;32.29;34.16;100196.50;5079972;28;20444;-76
2021/06/19 06:40:48;;;;;;;3.30;2.23;;;;;;;31.52;35.44;100205.97;5072527;28;21080;-75
2021/06/19 06:43:14;;;;;;;2.90;1.77;;;;;;;31.78;34.80;100205.88;5076386;28;20563;-75
2021/06/19 06:45:41;;;;;;;2.43;2.00;;;;;;;32.33;34.10;100205.06;5074867;28;20511;-74
2021/06/19 06:48:09;;;;;;;6.00;2.07;;;;;;;33.57;31.64;100203.63;5075526;28;20476;-74
2021/06/19 06:50:35;;;;;;;6.70;2.17;;;;;;;32.01;34.57;100206.31;5075819;28;20536;-76
2021/06/19 06:53:03;;;;;;;3.20;1.90;;;;;;;32.25;33.99;100200.94;5082957;28;20465;-75
2021/06/19 06:55:30;;;;;;;3.10;1.93;;;;;;;32.44;34.21;100207.44;5081386;28;20464;-76
2021/06/19 06:57:57;;;;;;;2.57;1.87;;;;;;;33.75;31.48;100192.94;5084431;28;20488;-74
2021/06/19 07:00:23;;;;;;;3.60;1.60;;;;;;;34.55;30.39;100207.91;5082559;28;20483;-74
2021/06/19 07:02:51;;;;;;;3.20;1.77;;;;;;;36.12;28.02;100200.75;5082904;28;20486;-74
2021/06/19 07:05:18;;;;;;;2.30;1.60;;;;;;;34.94;29.07;100211.44;5074939;28;20456;-75
2021/06/19 07:07:45;;;;;;;2.70;1.90;;;;;;;34.33;30.61;100214.88;5077472;28;20468;-74
2021/06/19 07:10:14;;;;;;;4.63;1.97;;;;;;;33.12;32.11;100210.50;5074784;28;20457;-74
2021/06/19 07:12:42;;;;;;;2.17;1.80;;;;;;;33.38;32.25;100223.00;5076040;28;20478;-75
2021/06/19 07:15:10;;;;;;;2.80;1.67;;;;;;;33.61;32.18;100230.78;5082132;28;20491;-73
2021/06/19 07:17:37;;;;;;;6.00;1.50;;;;;;;32.11;33.98;100222.06;5084270;28;20436;-76
2021/06/19 07:20:06;;;;;;;2.80;1.50;;;;;;;31.98;34.59;100218.78;5080264;28;20480;-73
2021/06/19 07:22:32;;;;;;;6.63;2.53;;;;;;;32.62;33.37;100225.34;5080855;28;20468;-74
2021/06/19 07:25:01;;;;;;;2.30;1.93;;;;;;;34.96;30.13;100231.41;5083301;28;20501;-74
2021/06/19 07:27:29;;;;;;;4.03;1.90;;;;;;;35.45;28.87;100228.00;5077586;28;21017;-74
2021/06/19 07:29:55;;;;;;;2.17;1.80;;;;;;;33.53;31.30;100235.03;5076631;28;20475;-74
2021/06/19 07:32:22;;;;;;;2.67;1.63;;;;;;;33.71;31.23;100227.91;5078315;28;20510;-74
2021/06/19 07:34:49;;;;;;;2.67;1.70;;;;;;;34.95;29.76;100240.84;5082300;28;20506;-74
2021/06/19 07:37:16;;;;;;;4.90;1.70;;;;;;;32.58;32.67;100238.06;5075469;28;20491;-73
2021/06/19 07:39:43;;;;;;;3.83;1.70;;;;;;;33.11;31.68;100250.41;5076142;28;20481;-74
2021/06/19 07:42:10;;;;;;;3.70;1.30;;;;;;;32.22;33.30;100245.78;5072820;28;20567;-75
2021/06/19 07:44:38;;;;;;;4.10;1.03;;;;;;;33.19;31.05;100247.88;5081026;28;20555;-73
2021/06/19 07:47:05;;;;;;;2.00;1.23;;;;;;;35.08;29.07;100248.41;5079906;28;20509;-74
2021/06/19 07:49:32;;;;;;;1.80;1.57;;;;;;;34.09;30.13;100247.41;5082168;28;20499;-76
2021/06/19 07:52:01;;;;;;;5.00;1.40;;;;;;;33.40;31.58;100259.56;5082227;28;20472;-75
2021/06/19 07:54:28;;;;;;;4.33;1.37;;;;;;;33.02;32.28;100261.28;5082658;28;20437;-74
2021/06/19 07:56:54;;;;;;;2.30;1.33;;;;;;;33.26;31.83;100272.44;5077479;28;20480;-74
2021/06/19 07:59:21;;;;;;;4.00;1.30;;;;;;;33.16;31.43;100273.38;5075780;28;20480;-76
2021/06/19 08:01:49;;;;;;;2.40;1.40;;;;;;;33.12;31.38;100274.22;5069276;28;20468;-75
2021/06/19 08:04:16;;;;;;;3.10;1.13;;;;;;;31.32;33.31;100272.31;5081147;28;20499;-75
2021/06/19 08:06:43;;;;;;;3.07;1.17;;;;;;;32.49;32.44;100273.00;5081773;28;20578;-74
2021/06/19 08:09:09;;;;;;;3.40;1.50;;;;;;;32.86;31.79;100268.88;5081327;28;20480;-74
2021/06/19 08:11:36;;;;;;;1.50;1.07;;;;;;;34.00;30.02;100265.84;5081098;28;20476;-74
2021/06/19 08:14:03;;;;;;;2.40;1.57;;;;;;;33.34;31.08;100268.22;5082483;28;20459;-75
2021/06/19 08:16:29;;;;;;;2.17;1.10;;;;;;;33.44;30.50;100264.53;5079716;28;20483;-74
2021/06/19 08:18:57;;;;;;;2.30;1.30;;;;;;;32.38;32.31;100276.97;5081287;28;20447;-74
2021/06/19 08:21:24;;;;;;;3.30;1.30;;;;;;;32.82;31.35;100271.41;5080316;28;20511;-74
2021/06/19 08:23:51;;;;;;;2.43;1.30;;;;;;;32.95;31.58;100263.56;5079967;28;20898;-75
2021/06/19 08:26:17;;;;;;;2.23;1.40;;;;;;;32.24;32.00;100257.41;5073208;28;20553;-73
2021/06/19 08:28:44;;;;;;;1.77;1.07;;;;;;;31.68;33.17;100269.47;5074741;28;20466;-75
2021/06/19 08:31:11;;;;;;;1.83;1.40;;;;;;;33.38;31.00;100261.81;5059412;28;20477;-72
2021/06/19 08:33:38;;;;;;;4.07;1.57;;;;;;;32.16;32.84;100269.88;5066655;28;20875;-75
2021/06/19 08:36:07;;;;;;;1.83;1.20;;;;;;;33.32;32.18;100267.69;5080588;28;21048;-73
2021/06/19 08:38:34;;;;;;;6.17;1.33;;;;;;;32.35;32.82;100263.69;5080197;28;20448;-74
2021/06/19 08:41:01;;;;;;;1.80;1.27;;;;;;;30.22;36.16;100268.84;5079761;28;20476;-75
2021/06/19 08:43:28;;;;;;;1.87;1.10;;;;;;;30.99;35.18;100260.75;5082027;28;20429;-74
2021/06/19 08:45:55;;;;;;;2.30;1.47;;;;;;;32.03;32.88;100260.22;5078115;28;20530;-74
2021/06/19 08:48:22;;;;;;;2.27;1.67;;;;;;;31.89;33.24;100256.41;5080966;28;20508;-74
2021/06/19 08:50:49;;;;;;;3.37;1.10;;;;;;;32.65;32.77;100255.22;5080191;28;20477;-74
2021/06/19 08:53:19;;;;;;;5.33;1.10;;;;;;;33.78;31.63;100258.88;5081153;28;20493;-74
2021/06/19 08:55:46;;;;;;;2.30;1.30;;;;;;;35.93;28.65;100260.16;5078423;28;20487;-74
2021/06/19 08:58:13;;;;;;;2.23;1.17;;;;;;;35.51;28.04;100267.66;5083072;28;20542;-74
2021/06/19 09:00:39;;;;;;;2.50;1.07;;;;;;;36.71;26.84;100253.72;5077881;28;20479;-74
2021/06/19 09:03:19;;;;;;;2.07;1.20;;;;;;;34.10;29.04;100246.28;5079644;28;20483;-75
2021/06/19 09:05:46;;;;;;;1.20;1.10;;;;;;;35.17;27.84;100254.06;5079486;28;20471;-74
2021/06/19 09:08:13;;;;;;;2.57;1.40;;;;;;;35.94;27.26;100258.22;5080269;28;20476;-75
2021/06/19 09:10:41;;;;;;;1.20;1.00;;;;;;;35.94;27.77;100258.22;5079555;28;20472;-73
2021/06/19 09:13:09;;;;;;;1.73;1.00;;;;;;;36.01;26.97;100258.59;5074884;28;20494;-75
2021/06/19 09:15:39;;;;;;;3.33;1.70;;;;;;;36.94;25.33;100248.94;5058671;28;20466;-75
2021/06/19 09:18:17;;;;;;;1.67;1.10;;;;;;;37.32;24.81;100245.75;5072649;28;20448;-74
2021/06/19 09:20:50;;;;;;;1.70;1.10;;;;;;;35.43;26.93;100248.91;5078818;28;20922;-75
2021/06/19 09:23:19;;;;;;;2.17;1.30;;;;;;;34.51;28.11;100249.31;5081202;28;20441;-74
2021/06/19 09:25:47;;;;;;;3.37;1.00;;;;;;;34.57;27.96;100247.28;5078753;28;20464;-74
2021/06/19 09:28:14;;;;;;;2.00;1.20;;;;;;;33.77;29.00;100241.41;5079934;28;20449;-74
2021/06/19 09:30:41;;;;;;;1.97;0.80;;;;;;;34.01;29.17;100243.34;5078720;28;20468;-74
2021/06/19 09:33:10;;;;;;;2.10;1.40;;;;;;;33.74;29.56;100239.22;5080266;28;20465;-74
2021/06/19 09:35:38;;;;;;;1.60;1.23;;;;;;;33.98;29.87;100241.16;5073767;28;20756;-75
2021/06/19 09:38:06;;;;;;;1.73;1.10;;;;;;;33.96;29.48;100232.31;5080978;28;20436;-74
2021/06/19 09:40:35;;;;;;;1.73;1.20;;;;;;;34.91;28.78;100240.63;5078331;28;20507;-74
2021/06/19 09:43:12;;;;;;;1.30;1.10;;;;;;;34.81;28.98;100247.22;5060366;28;20438;-74
2021/06/19 09:45:40;;;;;;;1.30;1.17;;;;;;;34.59;27.97;100245.03;5077533;28;20491;-74
2021/06/19 09:48:23;;;;;;;2.37;1.20;;;;;;;34.15;29.25;100241.47;5080686;28;20517;-74
2021/06/19 09:51:10;;;;;;;1.90;1.10;;;;;;;34.47;27.99;100228.00;5070023;28;20527;-74
2021/06/19 09:53:37;;;;;;;2.23;1.00;;;;;;;35.14;28.09;100232.44;5045319;28;20483;-74
2021/06/19 09:56:04;;;;;;;2.80;1.23;;;;;;;35.99;27.31;100231.09;5079823;28;20494;-74
2021/06/19 09:58:39;;;;;;;3.97;1.40;;;;;;;36.31;26.74;100225.69;5079475;28;20441;-74
2021/06/19 10:01:06;;;;;;;2.07;1.13;;;;;;;35.09;27.24;100227.84;5078552;28;20499;-74
2021/06/19 10:03:50;;;;;;;2.03;1.10;;;;;;;35.19;27.56;100235.97;5080165;28;20432;-74
2021/06/19 10:06:17;;;;;;;3.17;1.10;;;;;;;34.84;27.71;100221.59;5078857;28;20472;-74
2021/06/19 10:08:46;;;;;;;2.87;1.00;;;;;;;34.88;26.89;100230.97;5077372;28;20449;-74
2021/06/19 10:11:13;;;;;;;1.63;1.07;;;;;;;34.77;26.08;100228.66;5078056;28;20472;-74
2021/06/19 10:13:41;;;;;;;1.53;1.00;;;;;;;36.05;26.26;100229.00;5078844;28;20459;-74
2021/06/19 10:16:11;;;;;;;4.73;1.30;;;;;;;37.06;24.97;100212.94;5058875;28;20507;-74
2021/06/19 10:18:39;;;;;;;2.07;1.00;;;;;;;38.24;23.27;100217.94;5059803;28;20528;-73
2021/06/19 10:21:06;;;;;;;2.90;1.00;;;;;;;37.90;23.44;100213.16;5072253;28;20546;-73
2021/06/19 10:23:33;;;;;;;2.00;1.00;;;;;;;37.15;25.44;100220.53;5079704;28;20425;-75
2021/06/19 10:26:00;;;;;;;1.20;0.80;;;;;;;37.17;24.26;100207.97;5082148;28;20915;-74
2021/06/19 10:28:28;;;;;;;1.93;0.93;;;;;;;36.26;25.10;100211.88;5083201;28;20429;-75
2021/06/19 10:30:58;;;;;;;1.13;0.90;;;;;;;34.74;26.79;100215.38;5081827;28;20476;-74
2021/06/19 10:33:26;;;;;;;1.40;1.07;;;;;;;35.86;26.75;100215.22;5083394;28;20429;-74
2021/06/19 10:35:55;;;;;;;3.77;0.80;;;;;;;36.05;26.35;100209.53;5079750;28;20506;-75
2021/06/19 10:38:21;;;;;;;1.50;1.20;;;;;;;34.91;27.73;100209.25;5083559;28;20451;-75
2021/06/19 10:40:52;;;;;;;1.27;0.90;;;;;;;35.08;27.61;100215.06;5080381;28;20861;-74
2021/06/19 10:43:21;;;;;;;1.97;0.80;;;;;;;35.45;26.65;100204.91;5083315;28;20438;-74
2021/06/19 10:45:47;;;;;;;2.30;1.10;;;;;;;35.56;26.89;100200.81;5082443;28;20484;-74
2021/06/19 10:48:16;;;;;;;2.40;0.80;;;;;;;35.94;27.05;100199.78;5082832;28;20492;-75
2021/06/19 10:50:45;;;;;;;1.10;1.00;;;;;;;35.02;26.34;100203.22;5080390;28;20468;-74
2021/06/19 10:53:13;;;;;;;1.20;0.90;;;;;;;35.15;25.23;100198.00;5083117;28;20456;-75
2021/06/19 10:55:56;;;;;;;2.53;0.80;;;;;;;35.49;26.68;100194.84;5082384;28;20472;-75
2021/06/19 10:58:24;;;;;;;1.03;0.73;;;;;;;35.28;26.39;100197.22;5082530;28;20455;-75
2021/06/19 11:00:51;;;;;;;2.40;0.90;;;;;;;35.64;25.22;100183.41;5078086;28;20586;-74
2021/06/19 11:03:39;;;;;;;1.23;0.70;;;;;;;34.73;26.64;100184.00;5080036;28;20468;-76
2021/06/19 11:06:20;;;;;;;1.17;0.70;;;;;;;32.99;29.40;100176.84;5079633;28;20483;-78
2021/06/19 11:09:00;;;;;;;2.90;0.73;;;;;;;33.89;27.20;100177.22;5080346;28;20470;-80
2021/06/19 11:11:55;;;;;;;1.77;0.80;;;;;;;33.08;27.51;100168.72;5078992;28;20472;-78
2021/06/19 11:14:56;;;;;;;3.30;0.70;;;;;;;33.60;26.34;100166.19;5080685;28;20433;-78
2021/06/19 11:17:44;;;;;;;0.87;0.53;;;;;;;34.92;25.69;100160.91;5060188;28;20917;-78
2021/06/19 11:20:27;;;;;;;2.37;0.90;;;;;;;34.11;25.84;100143.34;5073076;28;20464;-78
2021/06/19 11:23:02;;;;;;;1.33;0.90;;;;;;;34.46;26.60;100151.41;5080486;28;20490;-78